PWSweather.com
Personal Weather Stations
Station Observations
IHTIMAN1
Neighbourhood 1, IhtimanBG 2050

Neighbourhood 1IhtimanBG 2050

Lat: 42.436852, Lon: 23.817921

Elevation: 2066

Station Type: Oregon Scientific WMR968

http://ihtiman-meteo.com

High Low Average
Temperature 86.7°F30.4°C 56.5°F13.6°C 70.5°F21.4°C
Dew Point 65.5°F18.6°C 55.2°F12.9°C 60.0°F15.6°C
Winds 8.1 mph 13.0 kmh Calm Calm 2.0 mph S3.2 kmh S
Wind Gusts 11.5 mph18.5 kmh -- 3.0 mph4.8 kmh
Humidity 98% 35% 74%
Pressure 30.03 in1016.9 mb 29.94 in1013.9 mb -
Precipitation 0.71 in18.0 mm - -
Hour Temp Dew Point Humidity Winds Wind Gusts Pressure Precip Precip Rate Daily Precip Total
12:00 AM 62.7°F17.1°C 60.4°F15.8°C 92% Calm Calm -- 29.97 in1014.9 mb - 0.00 in0.0 mm 0.00 in0.0 mm
12:10 AM 62.0°F16.7°C 59.7°F15.4°C 92% Calm Calm -- 29.97 in1014.9 mb - 0.00 in0.0 mm 0.00 in0.0 mm
12:20 AM 61.7°F16.5°C 59.3°F15.2°C 92% Calm Calm -- 29.97 in1014.9 mb - 0.00 in0.0 mm 0.00 in0.0 mm
12:30 AM 61.3°F16.3°C 59.3°F15.2°C 93% Calm Calm -- 29.97 in1014.9 mb - 0.00 in0.0 mm 0.00 in0.0 mm
12:40 AM 61.3°F16.3°C 59.3°F15.2°C 93% Calm Calm -- 29.97 in1014.9 mb - 0.00 in0.0 mm 0.00 in0.0 mm
12:50 AM 61.3°F16.3°C 59.6°F15.3°C 94% Calm Calm -- 29.97 in1014.9 mb - 0.00 in0.0 mm 0.00 in0.0 mm
01:00 AM 61.0°F16.1°C 59.2°F15.1°C 94% Calm Calm -- 29.97 in1014.9 mb - 0.00 in0.0 mm 0.00 in0.0 mm
01:10 AM 60.6°F15.9°C 59.2°F15.1°C 95% Calm Calm -- 29.97 in1014.9 mb - 0.00 in0.0 mm 0.00 in0.0 mm
01:20 AM 60.4°F15.8°C 59.0°F15.0°C 95% Calm Calm -- 29.97 in1014.9 mb - 0.00 in0.0 mm 0.00 in0.0 mm
01:30 AM 60.3°F15.7°C 58.8°F14.9°C 95% Calm Calm -- 29.97 in1014.9 mb - 0.00 in0.0 mm 0.00 in0.0 mm
01:40 AM 60.1°F15.6°C 58.6°F14.8°C 95% Calm Calm -- 29.97 in1014.9 mb - 0.00 in0.0 mm 0.00 in0.0 mm
01:50 AM 59.7°F15.4°C 58.3°F14.6°C 95% Calm Calm -- 29.97 in1014.9 mb - 0.00 in0.0 mm 0.00 in0.0 mm
02:00 AM 59.4°F15.2°C 57.9°F14.4°C 95% Calm Calm -- 29.97 in1014.9 mb - 0.00 in0.0 mm 0.00 in0.0 mm
02:10 AM 59.4°F15.2°C 58.2°F14.6°C 96% 2.3 mph S3.7 kmh S 3.5 mph5.6 kmh 29.97 in1014.9 mb - 0.00 in0.0 mm 0.00 in0.0 mm
02:20 AM 59.3°F15.2°C 58.2°F14.6°C 96% 2.3 mph SE3.7 kmh SE 3.5 mph5.6 kmh 29.97 in1014.9 mb - 0.00 in0.0 mm 0.00 in0.0 mm
02:30 AM 59.0°F15.0°C 57.9°F14.4°C 96% Calm Calm -- 29.94 in1013.9 mb - 0.00 in0.0 mm 0.00 in0.0 mm
02:40 AM 59.0°F15.0°C 57.9°F14.4°C 96% Calm Calm -- 29.94 in1013.9 mb - 0.00 in0.0 mm 0.00 in0.0 mm
02:50 AM 59.0°F15.0°C 57.9°F14.4°C 96% Calm Calm -- 29.97 in1014.9 mb - 0.00 in0.0 mm 0.00 in0.0 mm
03:00 AM 59.0°F15.0°C 58.1°F14.5°C 97% Calm Calm -- 29.97 in1014.9 mb - 0.00 in0.0 mm 0.00 in0.0 mm
03:10 AM 58.8°F14.9°C 58.0°F14.4°C 97% Calm Calm -- 29.97 in1014.9 mb - 0.00 in0.0 mm 0.00 in0.0 mm
03:20 AM 58.5°F14.7°C 57.6°F14.2°C 97% Calm Calm -- 29.97 in1014.9 mb - 0.00 in0.0 mm 0.00 in0.0 mm
03:30 AM 58.1°F14.5°C 57.3°F14.1°C 97% Calm Calm -- 29.97 in1014.9 mb - 0.00 in0.0 mm 0.00 in0.0 mm
03:40 AM 57.9°F14.4°C 57.1°F13.9°C 97% Calm Calm -- 29.97 in1014.9 mb - 0.00 in0.0 mm 0.00 in0.0 mm
03:50 AM 57.7°F14.3°C 56.9°F13.8°C 97% Calm Calm -- 29.97 in1014.9 mb - 0.00 in0.0 mm 0.00 in0.0 mm
04:00 AM 57.9°F14.4°C 57.4°F14.1°C 98% Calm Calm -- 29.97 in1014.9 mb - 0.00 in0.0 mm 0.00 in0.0 mm
04:10 AM 57.9°F14.4°C 57.4°F14.1°C 98% Calm Calm -- 29.97 in1014.9 mb - 0.00 in0.0 mm 0.00 in0.0 mm
04:20 AM 57.6°F14.2°C 57.0°F13.9°C 98% Calm Calm -- 29.97 in1014.9 mb - 0.00 in0.0 mm 0.00 in0.0 mm
04:30 AM 56.8°F13.8°C 56.3°F13.5°C 98% Calm Calm -- 29.97 in1014.9 mb - 0.00 in0.0 mm 0.00 in0.0 mm
04:40 AM 56.6°F13.7°C 56.0°F13.3°C 98% Calm Calm -- 29.97 in1014.9 mb - 0.00 in0.0 mm 0.00 in0.0 mm
04:50 AM 56.5°F13.6°C 55.9°F13.3°C 98% Calm Calm -- 29.97 in1014.9 mb - 0.00 in0.0 mm 0.00 in0.0 mm
05:00 AM 56.5°F13.6°C 56.0°F13.3°C 98% Calm Calm -- 29.97 in1014.9 mb - 0.00 in0.0 mm 0.00 in0.0 mm
05:10 AM 56.7°F13.7°C 56.1°F13.4°C 98% Calm Calm -- 29.97 in1014.9 mb - 0.00 in0.0 mm 0.00 in0.0 mm
05:20 AM 56.9°F13.8°C 56.3°F13.5°C 98% Calm Calm -- 29.97 in1014.9 mb - 0.00 in0.0 mm 0.00 in0.0 mm
05:30 AM 57.2°F14.0°C 56.6°F13.7°C 98% Calm Calm -- 29.97 in1014.9 mb - 0.00 in0.0 mm 0.00 in0.0 mm
05:40 AM 57.5°F14.2°C 57.0°F13.9°C 98% Calm Calm -- 29.97 in1014.9 mb - 0.00 in0.0 mm 0.00 in0.0 mm
05:50 AM 57.6°F14.2°C 57.0°F13.9°C 98% Calm Calm -- 30.00 in1015.9 mb - 0.00 in0.0 mm 0.00 in0.0 mm
06:00 AM 58.1°F14.5°C 57.5°F14.2°C 98% Calm Calm -- 29.97 in1014.9 mb - 0.00 in0.0 mm 0.00 in0.0 mm
06:10 AM 58.8°F14.9°C 58.3°F14.6°C 98% Calm Calm -- 29.97 in1014.9 mb - 0.00 in0.0 mm 0.00 in0.0 mm
06:20 AM 59.3°F15.2°C 58.7°F14.8°C 98% 2.3 mph SW3.7 kmh SW 3.5 mph5.6 kmh 30.00 in1015.9 mb - 0.00 in0.0 mm 0.00 in0.0 mm
06:30 AM 58.8°F14.9°C 58.3°F14.6°C 98% Calm Calm -- 30.00 in1015.9 mb - 0.00 in0.0 mm 0.00 in0.0 mm
06:40 AM 59.2°F15.1°C 58.6°F14.8°C 98% 2.3 mph W3.7 kmh W 2.3 mph3.7 kmh 30.00 in1015.9 mb - 0.00 in0.0 mm 0.00 in0.0 mm
06:50 AM 59.9°F15.5°C 59.3°F15.2°C 98% Calm Calm 2.3 mph3.7 kmh 30.00 in1015.9 mb - 0.00 in0.0 mm 0.00 in0.0 mm
07:00 AM 60.9°F16.1°C 60.3°F15.7°C 98% Calm Calm -- 30.00 in1015.9 mb - 0.00 in0.0 mm 0.00 in0.0 mm
07:10 AM 62.3°F16.8°C 61.7°F16.5°C 98% Calm Calm -- 30.00 in1015.9 mb - 0.00 in0.0 mm 0.00 in0.0 mm
07:20 AM 65.2°F18.4°C 64.0°F17.8°C 96% Calm Calm -- 30.00 in1015.9 mb - 0.00 in0.0 mm 0.00 in0.0 mm
07:30 AM 66.7°F19.3°C 63.0°F17.2°C 88% Calm Calm -- 30.00 in1015.9 mb - 0.00 in0.0 mm 0.00 in0.0 mm
07:40 AM 68.0°F20.0°C 61.9°F16.6°C 81% 2.3 mph SW3.7 kmh SW 3.5 mph5.6 kmh 30.00 in1015.9 mb - 0.00 in0.0 mm 0.00 in0.0 mm
07:50 AM 68.4°F20.2°C 61.6°F16.4°C 79% Calm Calm -- 30.00 in1015.9 mb - 0.00 in0.0 mm 0.00 in0.0 mm
08:00 AM 69.6°F20.9°C 61.7°F16.5°C 76% Calm Calm -- 30.00 in1015.9 mb - 0.00 in0.0 mm 0.00 in0.0 mm
08:10 AM 70.0°F21.1°C 60.5°F15.8°C 72% Calm Calm -- 30.00 in1015.9 mb - 0.00 in0.0 mm 0.00 in0.0 mm
08:20 AM 71.4°F21.9°C 61.1°F16.2°C 70% Calm Calm -- 30.00 in1015.9 mb - 0.00 in0.0 mm 0.00 in0.0 mm
08:30 AM 72.1°F22.3°C 61.0°F16.1°C 68% Calm Calm -- 30.00 in1015.9 mb - 0.00 in0.0 mm 0.00 in0.0 mm
08:40 AM 72.9°F22.7°C 62.1°F16.7°C 69% 2.3 mph WNW3.7 kmh WNW 4.6 mph7.4 kmh 30.00 in1015.9 mb - 0.00 in0.0 mm 0.00 in0.0 mm
08:50 AM 74.0°F23.3°C 63.1°F17.3°C 69% 2.3 mph NNW3.7 kmh NNW 3.5 mph5.6 kmh 30.00 in1015.9 mb - 0.00 in0.0 mm 0.00 in0.0 mm
09:00 AM 75.0°F23.9°C 63.3°F17.4°C 67% 3.5 mph WSW5.6 kmh WSW 5.8 mph9.3 kmh 30.00 in1015.9 mb - 0.00 in0.0 mm 0.00 in0.0 mm
09:10 AM 74.8°F23.8°C 63.1°F17.3°C 67% 3.5 mph NNW5.6 kmh NNW 3.5 mph5.6 kmh 30.00 in1015.9 mb - 0.00 in0.0 mm 0.00 in0.0 mm
09:20 AM 76.1°F24.5°C 64.0°F17.8°C 66% 3.5 mph W5.6 kmh W 3.5 mph5.6 kmh 30.00 in1015.9 mb - 0.00 in0.0 mm 0.00 in0.0 mm
09:30 AM 76.2°F24.6°C 62.7°F17.1°C 63% 1.2 mph NW1.9 kmh NW 3.5 mph5.6 kmh 30.00 in1015.9 mb - 0.00 in0.0 mm 0.00 in0.0 mm
09:40 AM 76.1°F24.5°C 63.0°F17.2°C 64% Calm Calm 3.5 mph5.6 kmh 30.00 in1015.9 mb - 0.00 in0.0 mm 0.00 in0.0 mm
09:50 AM 77.0°F25.0°C 63.5°F17.5°C 63% 3.5 mph WSW5.6 kmh WSW 3.5 mph5.6 kmh 30.00 in1015.9 mb - 0.00 in0.0 mm 0.00 in0.0 mm
10:00 AM 77.6°F25.3°C 62.6°F17.0°C 60% 2.3 mph S3.7 kmh S 3.5 mph5.6 kmh 30.00 in1015.9 mb - 0.00 in0.0 mm 0.00 in0.0 mm
10:10 AM 78.0°F25.6°C 62.5°F16.9°C 59% 1.2 mph S1.9 kmh S 4.6 mph7.4 kmh 30.00 in1015.9 mb - 0.00 in0.0 mm 0.00 in0.0 mm
10:20 AM 78.7°F25.9°C 63.2°F17.3°C 59% 3.5 mph SSE5.6 kmh SSE 5.8 mph9.3 kmh 30.00 in1015.9 mb - 0.00 in0.0 mm 0.00 in0.0 mm
10:30 AM 78.5°F25.8°C 62.0°F16.7°C 57% 3.5 mph WSW5.6 kmh WSW 3.5 mph5.6 kmh 30.00 in1015.9 mb - 0.00 in0.0 mm 0.00 in0.0 mm
10:40 AM 79.9°F26.6°C 61.7°F16.5°C 54% Calm Calm -- 30.00 in1015.9 mb - 0.00 in0.0 mm 0.00 in0.0 mm
10:50 AM 79.0°F26.1°C 59.3°F15.2°C 51% 4.6 mph SE7.4 kmh SE 5.8 mph9.3 kmh 30.00 in1015.9 mb - 0.00 in0.0 mm 0.00 in0.0 mm
11:00 AM 77.7°F25.4°C 59.2°F15.1°C 53% 3.5 mph SE5.6 kmh SE 5.8 mph9.3 kmh 30.00 in1015.9 mb - 0.00 in0.0 mm 0.00 in0.0 mm
11:10 AM 77.4°F25.2°C 60.0°F15.6°C 55% 3.5 mph SE5.6 kmh SE 3.5 mph5.6 kmh 30.00 in1015.9 mb - 0.00 in0.0 mm 0.00 in0.0 mm
11:20 AM 77.4°F25.2°C 59.9°F15.5°C 55% 3.5 mph SE5.6 kmh SE 5.8 mph9.3 kmh 30.00 in1015.9 mb - 0.00 in0.0 mm 0.00 in0.0 mm
11:30 AM 77.4°F25.2°C 59.9°F15.5°C 55% 4.6 mph SE7.4 kmh SE 5.8 mph9.3 kmh 30.00 in1015.9 mb - 0.00 in0.0 mm 0.00 in0.0 mm
11:40 AM 83.1°F28.4°C 61.9°F16.6°C 49% 4.6 mph SE7.4 kmh SE 8.1 mph13.0 kmh 30.00 in1015.9 mb - 0.00 in0.0 mm 0.00 in0.0 mm
11:50 AM 82.4°F28.0°C 59.5°F15.3°C 46% 4.6 mph SE7.4 kmh SE 8.1 mph13.0 kmh 30.00 in1015.9 mb - 0.00 in0.0 mm 0.00 in0.0 mm
12:00 PM 83.0°F28.3°C 58.2°F14.6°C 43% 4.6 mph SE7.4 kmh SE 5.8 mph9.3 kmh 30.00 in1015.9 mb - 0.00 in0.0 mm 0.00 in0.0 mm
12:10 PM 83.0°F28.3°C 57.6°F14.2°C 42% 4.6 mph SE7.4 kmh SE 5.8 mph9.3 kmh 30.00 in1015.9 mb - 0.00 in0.0 mm 0.00 in0.0 mm
12:20 PM 84.3°F29.1°C 58.1°F14.5°C 41% 4.6 mph SE7.4 kmh SE 9.2 mph14.8 kmh 30.00 in1015.9 mb - 0.00 in0.0 mm 0.00 in0.0 mm
12:30 PM 83.9°F28.8°C 56.3°F13.5°C 39% 8.1 mph S13.0 kmh S 8.1 mph13.0 kmh 30.00 in1015.9 mb - 0.00 in0.0 mm 0.00 in0.0 mm
12:40 PM 82.8°F28.2°C 56.7°F13.7°C 41% 4.6 mph SE7.4 kmh SE 5.8 mph9.3 kmh 30.00 in1015.9 mb - 0.00 in0.0 mm 0.00 in0.0 mm
12:50 PM 84.6°F29.2°C 57.6°F14.2°C 40% 5.8 mph SE9.3 kmh SE 8.1 mph13.0 kmh 30.00 in1015.9 mb - 0.00 in0.0 mm 0.00 in0.0 mm
01:00 PM 85.6°F29.8°C 59.2°F15.1°C 41% 4.6 mph E7.4 kmh E 11.5 mph18.5 kmh 30.00 in1015.9 mb - 0.00 in0.0 mm 0.00 in0.0 mm
01:10 PM 86.7°F30.4°C 58.8°F14.9°C 39% 5.8 mph SSE9.3 kmh SSE 8.1 mph13.0 kmh 30.00 in1015.9 mb - 0.00 in0.0 mm 0.00 in0.0 mm
01:20 PM 85.5°F29.7°C 57.7°F14.3°C 39% 4.6 mph SE7.4 kmh SE 10.4 mph16.7 kmh 30.00 in1015.9 mb - 0.00 in0.0 mm 0.00 in0.0 mm
01:30 PM 82.4°F28.0°C 55.6°F13.1°C 40% 4.6 mph ESE7.4 kmh ESE 5.8 mph9.3 kmh 30.00 in1015.9 mb - 0.00 in0.0 mm 0.00 in0.0 mm
01:40 PM 81.7°F27.6°C 57.0°F13.9°C 43% 3.5 mph SE5.6 kmh SE 3.5 mph5.6 kmh 30.00 in1015.9 mb - 0.00 in0.0 mm 0.00 in0.0 mm
01:50 PM 82.6°F28.1°C 57.2°F14.0°C 42% 3.5 mph ENE5.6 kmh ENE 5.8 mph9.3 kmh 30.00 in1015.9 mb - 0.00 in0.0 mm 0.00 in0.0 mm
02:00 PM 83.1°F28.4°C 57.6°F14.2°C 42% 3.5 mph SE5.6 kmh SE 4.6 mph7.4 kmh 30.00 in1015.9 mb - 0.00 in0.0 mm 0.00 in0.0 mm
02:10 PM 84.4°F29.1°C 58.8°F14.9°C 42% 6.9 mph SE11.1 kmh SE 9.2 mph14.8 kmh 30.00 in1015.9 mb - 0.00 in0.0 mm 0.00 in0.0 mm
02:20 PM 85.1°F29.5°C 58.8°F14.9°C 41% 3.5 mph SE5.6 kmh SE 3.5 mph5.6 kmh 29.97 in1014.9 mb - 0.00 in0.0 mm 0.00 in0.0 mm
02:30 PM 84.3°F29.1°C 57.3°F14.1°C 40% 5.8 mph SSE9.3 kmh SSE 5.8 mph9.3 kmh 29.97 in1014.9 mb - 0.00 in0.0 mm 0.00 in0.0 mm
02:40 PM 82.8°F28.2°C 56.7°F13.7°C 41% 4.6 mph ESE7.4 kmh ESE 5.8 mph9.3 kmh 29.97 in1014.9 mb - 0.00 in0.0 mm 0.00 in0.0 mm
02:50 PM 83.5°F28.6°C 57.3°F14.1°C 41% 2.3 mph ESE3.7 kmh ESE 5.8 mph9.3 kmh 29.97 in1014.9 mb - 0.00 in0.0 mm 0.00 in0.0 mm
03:00 PM 83.7°F28.7°C 56.1°F13.4°C 39% 5.8 mph SE9.3 kmh SE 8.1 mph13.0 kmh 29.97 in1014.9 mb - 0.00 in0.0 mm 0.00 in0.0 mm
03:10 PM 82.9°F28.3°C 56.1°F13.4°C 40% 3.5 mph ESE5.6 kmh ESE 5.8 mph9.3 kmh 29.97 in1014.9 mb - 0.00 in0.0 mm 0.00 in0.0 mm
03:20 PM 82.9°F28.3°C 56.1°F13.4°C 40% 4.6 mph SE7.4 kmh SE 5.8 mph9.3 kmh 29.97 in1014.9 mb - 0.00 in0.0 mm 0.00 in0.0 mm
03:30 PM 83.3°F28.5°C 55.8°F13.2°C 39% Calm Calm -- 29.97 in1014.9 mb - 0.00 in0.0 mm 0.00 in0.0 mm
03:40 PM 84.6°F29.2°C 57.7°F14.3°C 40% 5.8 mph SE9.3 kmh SE 8.1 mph13.0 kmh 29.97 in1014.9 mb - 0.00 in0.0 mm 0.00 in0.0 mm
03:50 PM 86.1°F30.1°C 56.0°F13.3°C 36% 2.3 mph E3.7 kmh E 4.6 mph7.4 kmh 29.97 in1014.9 mb - 0.00 in0.0 mm 0.00 in0.0 mm
04:00 PM 86.0°F30.0°C 55.2°F12.9°C 35% 3.5 mph ENE5.6 kmh ENE 5.8 mph9.3 kmh 29.97 in1014.9 mb - 0.00 in0.0 mm 0.00 in0.0 mm
04:10 PM 85.0°F29.4°C 58.6°F14.8°C 41% 4.6 mph NNE7.4 kmh NNE 6.9 mph11.1 kmh 29.97 in1014.9 mb - 0.00 in0.0 mm 0.00 in0.0 mm
04:20 PM 81.7°F27.6°C 57.6°F14.2°C 44% 2.3 mph ENE3.7 kmh ENE 3.5 mph5.6 kmh 29.97 in1014.9 mb - 0.00 in0.0 mm 0.00 in0.0 mm
04:30 PM 80.8°F27.1°C 58.7°F14.8°C 47% 3.5 mph ENE5.6 kmh ENE 5.8 mph9.3 kmh 29.97 in1014.9 mb - 0.00 in0.0 mm 0.00 in0.0 mm
04:40 PM 81.1°F27.3°C 58.4°F14.7°C 46% 4.6 mph NE7.4 kmh NE 4.6 mph7.4 kmh 29.97 in1014.9 mb - 0.00 in0.0 mm 0.00 in0.0 mm
04:50 PM 82.0°F27.8°C 59.8°F15.4°C 47% 4.6 mph NE7.4 kmh NE 9.2 mph14.8 kmh 29.97 in1014.9 mb - 0.00 in0.0 mm 0.00 in0.0 mm
05:00 PM 83.0°F28.3°C 58.9°F14.9°C 44% 3.5 mph NE5.6 kmh NE 4.6 mph7.4 kmh 29.97 in1014.9 mb - 0.00 in0.0 mm 0.00 in0.0 mm
05:10 PM 81.9°F27.7°C 59.7°F15.4°C 47% 4.6 mph WNW7.4 kmh WNW 5.8 mph9.3 kmh 29.97 in1014.9 mb - 0.00 in0.0 mm 0.00 in0.0 mm
05:20 PM 80.3°F26.8°C 60.5°F15.8°C 51% 8.1 mph NNW13.0 kmh NNW 11.5 mph18.5 kmh 29.97 in1014.9 mb - 0.00 in0.0 mm 0.00 in0.0 mm
05:30 PM 76.7°F24.8°C 61.7°F16.5°C 60% 5.8 mph W9.3 kmh W 8.1 mph13.0 kmh 29.97 in1014.9 mb - 0.00 in0.0 mm 0.00 in0.0 mm
05:40 PM 76.3°F24.6°C 62.3°F16.8°C 62% 6.9 mph W11.1 kmh W 8.1 mph13.0 kmh 29.97 in1014.9 mb - 0.00 in0.0 mm 0.00 in0.0 mm
05:50 PM 76.5°F24.7°C 61.6°F16.4°C 60% 5.8 mph N9.3 kmh N 9.2 mph14.8 kmh 30.00 in1015.9 mb - 0.00 in0.0 mm 0.00 in0.0 mm
06:00 PM 76.6°F24.8°C 61.7°F16.5°C 60% 3.5 mph NW5.6 kmh NW 4.6 mph7.4 kmh 30.00 in1015.9 mb - 0.00 in0.0 mm 0.00 in0.0 mm
06:10 PM 76.5°F24.7°C 61.5°F16.4°C 60% 5.8 mph NNW9.3 kmh NNW 9.2 mph14.8 kmh 30.00 in1015.9 mb - 0.00 in0.0 mm 0.00 in0.0 mm
06:20 PM 76.6°F24.8°C 61.7°F16.5°C 60% 6.9 mph NW11.1 kmh NW 8.1 mph13.0 kmh 30.00 in1015.9 mb - 0.00 in0.0 mm 0.00 in0.0 mm
06:30 PM 75.9°F24.4°C 61.5°F16.4°C 61% 4.6 mph W7.4 kmh W 8.1 mph13.0 kmh 30.00 in1015.9 mb - 0.00 in0.0 mm 0.00 in0.0 mm
06:40 PM 75.4°F24.1°C 58.6°F14.8°C 56% 5.8 mph W9.3 kmh W 9.2 mph14.8 kmh 30.00 in1015.9 mb - 0.00 in0.0 mm 0.00 in0.0 mm
06:50 PM 75.2°F24.0°C 58.4°F14.7°C 56% 3.5 mph W5.6 kmh W 5.8 mph9.3 kmh 30.00 in1015.9 mb - 0.00 in0.0 mm 0.00 in0.0 mm
07:00 PM 74.9°F23.8°C 58.6°F14.8°C 57% 5.8 mph NW9.3 kmh NW 5.8 mph9.3 kmh 30.00 in1015.9 mb - 0.00 in0.0 mm 0.00 in0.0 mm
07:10 PM 74.7°F23.7°C 58.9°F14.9°C 58% 5.8 mph NNW9.3 kmh NNW 8.1 mph13.0 kmh 30.00 in1015.9 mb - 0.00 in0.0 mm 0.00 in0.0 mm
07:20 PM 74.1°F23.4°C 59.3°F15.2°C 60% 4.6 mph N7.4 kmh N 5.8 mph9.3 kmh 30.00 in1015.9 mb - 0.00 in0.0 mm 0.00 in0.0 mm
07:30 PM 73.7°F23.2°C 60.4°F15.8°C 63% 3.5 mph NNE5.6 kmh NNE 4.6 mph7.4 kmh 30.00 in1015.9 mb - 0.14 in3.6 mm 0.14 in3.6 mm
07:40 PM 70.4°F21.3°C 62.1°F16.7°C 75% Calm Calm -- 30.00 in1015.9 mb - 0.61 in15.5 mm 0.61 in15.5 mm
07:50 PM 68.4°F20.2°C 62.4°F16.9°C 81% 1.2 mph ESE1.9 kmh ESE 3.5 mph5.6 kmh 30.00 in1015.9 mb - 0.66 in16.8 mm 0.66 in16.8 mm
08:00 PM 67.3°F19.6°C 63.6°F17.6°C 88% 3.5 mph S5.6 kmh S 4.6 mph7.4 kmh 30.03 in1016.9 mb - 0.66 in16.8 mm 0.66 in16.8 mm
08:10 PM 66.4°F19.1°C 64.0°F17.8°C 92% 2.3 mph ESE3.7 kmh ESE 3.5 mph5.6 kmh 30.03 in1016.9 mb - 0.71 in18.0 mm 0.71 in18.0 mm
08:20 PM 66.0°F18.9°C 64.2°F17.9°C 94% 1.2 mph NE1.9 kmh NE 2.3 mph3.7 kmh 30.03 in1016.9 mb - 0.71 in18.0 mm 0.71 in18.0 mm
08:30 PM 66.0°F18.9°C 64.8°F18.2°C 96% Calm Calm -- 30.03 in1016.9 mb - 0.71 in18.0 mm 0.71 in18.0 mm
08:40 PM 66.2°F19.0°C 65.1°F18.4°C 96% Calm Calm -- 30.03 in1016.9 mb - 0.14 in3.6 mm 0.71 in18.0 mm
08:50 PM 66.4°F19.1°C 65.5°F18.6°C 97% Calm Calm 3.5 mph5.6 kmh 30.03 in1016.9 mb - 0.05 in1.3 mm 0.71 in18.0 mm
09:00 PM 65.8°F18.8°C 65.2°F18.4°C 98% Calm Calm -- 30.03 in1016.9 mb - 0.05 in1.3 mm 0.71 in18.0 mm
09:10 PM 65.5°F18.6°C 64.9°F18.3°C 98% Calm Calm -- 30.03 in1016.9 mb - 0.00 in0.0 mm 0.71 in18.0 mm
09:20 PM 65.3°F18.5°C 64.7°F18.2°C 98% Calm Calm -- 30.03 in1016.9 mb - 0.00 in0.0 mm 0.71 in18.0 mm
09:30 PM 65.5°F18.6°C 64.9°F18.3°C 98% Calm Calm -- 30.03 in1016.9 mb - 0.00 in0.0 mm 0.71 in18.0 mm
09:40 PM 65.5°F18.6°C 64.9°F18.3°C 98% Calm Calm -- 30.03 in1016.9 mb - 0.00 in0.0 mm 0.71 in18.0 mm
09:50 PM 65.5°F18.6°C 64.9°F18.3°C 98% Calm Calm -- 30.03 in1016.9 mb - 0.00 in0.0 mm 0.71 in18.0 mm
10:10 PM 65.5°F18.6°C 64.9°F18.3°C 98% Calm Calm -- 30.03 in1016.9 mb - 0.00 in0.0 mm 0.71 in18.0 mm
10:20 PM 65.1°F18.4°C 64.5°F18.1°C 98% Calm Calm -- 30.03 in1016.9 mb - 0.00 in0.0 mm 0.71 in18.0 mm
10:30 PM 65.1°F18.4°C 64.5°F18.1°C 98% Calm Calm -- 30.03 in1016.9 mb - 0.00 in0.0 mm 0.71 in18.0 mm
10:40 PM 64.8°F18.2°C 64.2°F17.9°C 98% Calm Calm -- 30.03 in1016.9 mb - 0.00 in0.0 mm 0.71 in18.0 mm
10:50 PM 64.2°F17.9°C 63.6°F17.6°C 98% Calm Calm -- 30.03 in1016.9 mb - 0.00 in0.0 mm 0.71 in18.0 mm
11:00 PM 63.9°F17.7°C 63.3°F17.4°C 98% Calm Calm -- 30.03 in1016.9 mb - 0.00 in0.0 mm 4.44 in112.8 mm
11:10 PM 63.7°F17.6°C 63.1°F17.3°C 98% Calm Calm -- 30.03 in1016.9 mb - 0.00 in0.0 mm 4.44 in112.8 mm
11:20 PM 63.5°F17.5°C 62.9°F17.2°C 98% Calm Calm -- 30.03 in1016.9 mb - 0.00 in0.0 mm 4.44 in112.8 mm
11:30 PM 63.3°F17.4°C 62.7°F17.1°C 98% Calm Calm -- 30.03 in1016.9 mb - 0.00 in0.0 mm 4.44 in112.8 mm
11:40 PM 63.3°F17.4°C 62.7°F17.1°C 98% Calm Calm -- 30.03 in1016.9 mb - 0.00 in0.0 mm 4.44 in112.8 mm
11:50 PM 63.5°F17.5°C 62.9°F17.2°C 98% 2.3 mph SSE3.7 kmh SSE 3.5 mph5.6 kmh 30.03 in1016.9 mb - 0.00 in0.0 mm 4.44 in112.8 mm